This is the latest recevied weather packets stored in our database for station/object KQ4NAL. If no packets are shown the sender has not sent any weather packets the latest 1 day(s).
| Time | Temp. | Humidity | Pressure | Rain* | Wind** | Luminosity | Snow |
|---|---|---|---|---|---|---|---|
| 1778018886 | 16.11° C | 98% | 1009.2 hPa | 0 mm | 2.68 m/s, 185° | 65 W/m² | - |
| 1778018583 | 16.11° C | 98% | 1009.5 hPa | 0 mm | 1.34 m/s, 145° | 59 W/m² | - |
| 1778018281 | 16.11° C | 98% | 1009.4 hPa | 1.27 mm | 1.79 m/s, 173° | 53 W/m² | - |
| 1778017979 | 16.11° C | 98% | 1009.3 hPa | 1.27 mm | 2.68 m/s, 187° | 40 W/m² | - |
| 1778017676 | 16.11° C | 98% | 1009.4 hPa | 0 mm | 1.34 m/s, 333° | 78 W/m² | - |
| 1778017373 | 16.11° C | 98% | 1009.7 hPa | 1.78 mm | 2.24 m/s, 144° | 69 W/m² | - |
| 1778017070 | 16.11° C | 98% | 1009.7 hPa | 1.78 mm | 1.79 m/s, 205° | 55 W/m² | - |
| 1778016768 | 16.11° C | 98% | 1009.6 hPa | 0 mm | 2.24 m/s, 202° | 63 W/m² | - |
| 1778016463 | 16.11° C | 98% | 1009.6 hPa | 1.27 mm | 1.79 m/s, 215° | 76 W/m² | - |
| 1778016161 | 16.11° C | 98% | 1009.6 hPa | 1.27 mm | 1.34 m/s, 216° | 76 W/m² | - |
| 1778015858 | 16.11° C | 97% | 1009.7 hPa | 1.78 mm | 2.68 m/s, 148° | 63 W/m² | - |
| 1778015555 | 16.11° C | 97% | 1009.8 hPa | 1.78 mm | 1.79 m/s, 69° | 48 W/m² | - |
| 1778015251 | 16.11° C | 97% | 1009.8 hPa | 1.78 mm | 0.45 m/s, 322° | 68 W/m² | - |
| 1778014948 | 16.11° C | 97% | 1009.6 hPa | 1.27 mm | 0.89 m/s, 243° | 81 W/m² | - |
| 1778014646 | 16.11° C | 97% | 1009.7 hPa | 3.05 mm | 0.45 m/s, 348° | 61 W/m² | - |
| 1778014344 | 16.11° C | 96% | 1009.8 hPa | 3.56 mm | 1.79 m/s, 275° | 90 W/m² | - |
| 1778014040 | 16.67° C | 96% | 1009.8 hPa | 1.78 mm | 1.34 m/s, 172° | 87 W/m² | - |
| 1778013738 | 16.67° C | 95% | 1010 hPa | 1.27 mm | 0.45 m/s, 342° | 86 W/m² | - |
| 1778013435 | 16.67° C | 95% | 1009.9 hPa | 4.32 mm | 0.45 m/s, 316° | 71 W/m² | - |
| 1778013132 | 16.67° C | 94% | 1009.8 hPa | 4.83 mm | 0.89 m/s, 319° | 63 W/m² | - |
| 1778012828 | 16.67° C | 93% | 1009.9 hPa | 3.05 mm | 0.45 m/s, 288° | 46 W/m² | - |
| 1778012524 | 16.67° C | 92% | 1009.6 hPa | 1.27 mm | 0.89 m/s, 322° | 58 W/m² | - |
| 1778012220 | 16.67° C | 91% | 1009.6 hPa | 1.27 mm | 0.89 m/s, 349° | 72 W/m² | - |
| 1778011927 | 17.22° C | 89% | 1009.8 hPa | 0 mm | 0.89 m/s, 295° | 59 W/m² | - |
| 1778011616 | 17.78° C | 87% | 1009.6 hPa | 0 mm | 0.89 m/s, 337° | 84 W/m² | - |
* Rain latest hour (hover to see other rain measurements)
** Current wind speed in m/s (hover to see current wind gust speed)